sensor_id;sensor_type;location;lat;lon;timestamp;P1;durP1;ratioP1;P2;durP2;ratioP2
46765;SDS011;32527;51.986;5.842;2022-09-09T00:01:58;12.60;;;6.78;;
46765;SDS011;32527;51.986;5.842;2022-09-09T00:04:48;11.85;;;6.82;;
46765;SDS011;32527;51.986;5.842;2022-09-09T00:10:37;10.07;;;6.55;;
46765;SDS011;32527;51.986;5.842;2022-09-09T00:16:00;12.35;;;8.00;;
46765;SDS011;32527;51.986;5.842;2022-09-09T00:18:44;14.00;;;7.22;;
46765;SDS011;32527;51.986;5.842;2022-09-09T00:21:29;11.35;;;8.32;;
46765;SDS011;32527;51.986;5.842;2022-09-09T00:24:00;10.95;;;7.30;;
46765;SDS011;32527;51.986;5.842;2022-09-09T00:26:40;15.98;;;10.25;;
46765;SDS011;32527;51.986;5.842;2022-09-09T00:31:37;14.68;;;7.65;;
46765;SDS011;32527;51.986;5.842;2022-09-09T00:34:24;10.07;;;7.40;;
46765;SDS011;32527;51.986;5.842;2022-09-09T00:36:52;11.95;;;7.20;;
46765;SDS011;32527;51.986;5.842;2022-09-09T00:44:39;9.07;;;5.78;;
46765;SDS011;32527;51.986;5.842;2022-09-09T00:53:05;11.93;;;6.45;;
46765;SDS011;32527;51.986;5.842;2022-09-09T00:58:24;12.13;;;7.07;;
46765;SDS011;32527;51.986;5.842;2022-09-09T01:00:50;14.80;;;6.38;;
46765;SDS011;32527;51.986;5.842;2022-09-09T01:03:38;13.07;;;8.70;;
46765;SDS011;32527;51.986;5.842;2022-09-09T01:12:34;9.82;;;5.80;;
46765;SDS011;32527;51.986;5.842;2022-09-09T01:14:49;9.48;;;6.22;;
46765;SDS011;32527;51.986;5.842;2022-09-09T01:17:24;10.35;;;5.78;;
46765;SDS011;32527;51.986;5.842;2022-09-09T01:20:24;9.73;;;5.65;;
46765;SDS011;32527;51.986;5.842;2022-09-09T01:23:10;10.60;;;5.78;;
46765;SDS011;32527;51.986;5.842;2022-09-09T01:29:13;10.60;;;5.07;;
46765;SDS011;32527;51.986;5.842;2022-09-09T01:31:55;10.50;;;5.13;;
46765;SDS011;32527;51.986;5.842;2022-09-09T01:34:22;7.20;;;4.82;;
46765;SDS011;32527;51.986;5.842;2022-09-09T01:37:02;9.00;;;5.50;;
46765;SDS011;32527;51.986;5.842;2022-09-09T01:39:31;7.93;;;4.93;;
46765;SDS011;32527;51.986;5.842;2022-09-09T01:42:02;7.68;;;5.32;;
46765;SDS011;32527;51.986;5.842;2022-09-09T01:44:30;10.05;;;5.10;;
46765;SDS011;32527;51.986;5.842;2022-09-09T01:46:56;9.70;;;5.18;;
46765;SDS011;32527;51.986;5.842;2022-09-09T01:49:22;8.10;;;4.75;;
46765;SDS011;32527;51.986;5.842;2022-09-09T01:51:50;10.68;;;5.47;;
46765;SDS011;32527;51.986;5.842;2022-09-09T01:54:24;9.93;;;5.13;;
46765;SDS011;32527;51.986;5.842;2022-09-09T01:57:05;7.22;;;4.65;;
46765;SDS011;32527;51.986;5.842;2022-09-09T02:00:00;7.93;;;5.85;;
46765;SDS011;32527;51.986;5.842;2022-09-09T02:03:04;8.27;;;4.50;;
46765;SDS011;32527;51.986;5.842;2022-09-09T02:05:51;8.43;;;5.10;;
46765;SDS011;32527;51.986;5.842;2022-09-09T02:08:36;10.85;;;6.60;;
46765;SDS011;32527;51.986;5.842;2022-09-09T02:11:13;8.07;;;5.57;;
46765;SDS011;32527;51.986;5.842;2022-09-09T02:13:48;12.18;;;5.20;;
46765;SDS011;32527;51.986;5.842;2022-09-09T02:16:30;9.02;;;5.85;;
46765;SDS011;32527;51.986;5.842;2022-09-09T02:19:08;12.02;;;5.70;;
46765;SDS011;32527;51.986;5.842;2022-09-09T02:22:15;12.02;;;5.72;;
46765;SDS011;32527;51.986;5.842;2022-09-09T02:24:45;8.80;;;5.88;;
46765;SDS011;32527;51.986;5.842;2022-09-09T02:27:20;8.30;;;4.80;;
46765;SDS011;32527;51.986;5.842;2022-09-09T02:29:48;10.25;;;6.05;;
46765;SDS011;32527;51.986;5.842;2022-09-09T02:32:22;8.80;;;5.77;;
46765;SDS011;32527;51.986;5.842;2022-09-09T02:34:54;11.55;;;6.05;;
46765;SDS011;32527;51.986;5.842;2022-09-09T02:37:25;10.02;;;5.53;;
46765;SDS011;32527;51.986;5.842;2022-09-09T02:39:57;8.40;;;5.70;;
46765;SDS011;32527;51.986;5.842;2022-09-09T02:42:23;8.30;;;5.65;;
46765;SDS011;32527;51.986;5.842;2022-09-09T02:44:52;12.40;;;6.20;;
46765;SDS011;32527;51.986;5.842;2022-09-09T02:52:45;11.65;;;5.65;;
46765;SDS011;32527;51.986;5.842;2022-09-09T02:56:12;10.20;;;5.57;;
46765;SDS011;32527;51.986;5.842;2022-09-09T02:58:54;11.27;;;5.88;;
46765;SDS011;32527;51.986;5.842;2022-09-09T03:01:29;9.00;;;5.80;;
46765;SDS011;32527;51.986;5.842;2022-09-09T03:04:21;9.95;;;5.78;;
46765;SDS011;32527;51.986;5.842;2022-09-09T03:07:24;8.82;;;5.63;;
46765;SDS011;32527;51.986;5.842;2022-09-09T03:10:25;10.23;;;5.50;;
46765;SDS011;32527;51.986;5.842;2022-09-09T03:13:08;14.10;;;6.05;;
46765;SDS011;32527;51.986;5.842;2022-09-09T03:16:43;8.85;;;5.80;;
46765;SDS011;32527;51.986;5.842;2022-09-09T03:19:58;10.48;;;6.05;;
46765;SDS011;32527;51.986;5.842;2022-09-09T03:23:27;11.03;;;5.50;;
46765;SDS011;32527;51.986;5.842;2022-09-09T03:26:46;12.63;;;5.93;;
46765;SDS011;32527;51.986;5.842;2022-09-09T03:29:39;23.85;;;8.70;;
46765;SDS011;32527;51.986;5.842;2022-09-09T03:32:48;11.98;;;5.78;;
46765;SDS011;32527;51.986;5.842;2022-09-09T03:35:49;11.38;;;6.45;;
46765;SDS011;32527;51.986;5.842;2022-09-09T03:38:56;11.15;;;6.53;;
46765;SDS011;32527;51.986;5.842;2022-09-09T03:41:55;14.27;;;7.82;;
46765;SDS011;32527;51.986;5.842;2022-09-09T03:44:49;12.60;;;6.30;;
46765;SDS011;32527;51.986;5.842;2022-09-09T03:47:23;10.85;;;6.82;;
46765;SDS011;32527;51.986;5.842;2022-09-09T03:50:02;13.77;;;6.30;;
46765;SDS011;32527;51.986;5.842;2022-09-09T03:52:44;10.85;;;6.93;;
46765;SDS011;32527;51.986;5.842;2022-09-09T03:55:19;15.10;;;6.57;;
46765;SDS011;32527;51.986;5.842;2022-09-09T03:57:57;10.75;;;5.95;;
46765;SDS011;32527;51.986;5.842;2022-09-09T04:03:42;11.52;;;6.43;;
46765;SDS011;32527;51.986;5.842;2022-09-09T04:06:19;13.48;;;6.55;;
46765;SDS011;32527;51.986;5.842;2022-09-09T04:08:57;11.68;;;6.40;;
46765;SDS011;32527;51.986;5.842;2022-09-09T04:11:35;11.48;;;6.65;;
46765;SDS011;32527;51.986;5.842;2022-09-09T04:14:10;14.93;;;6.40;;
46765;SDS011;32527;51.986;5.842;2022-09-09T04:16:43;12.32;;;6.32;;
46765;SDS011;32527;51.986;5.842;2022-09-09T04:19:11;10.73;;;6.68;;
46765;SDS011;32527;51.986;5.842;2022-09-09T04:21:40;16.40;;;7.05;;
46765;SDS011;32527;51.986;5.842;2022-09-09T04:24:08;11.68;;;6.70;;
46765;SDS011;32527;51.986;5.842;2022-09-09T04:26:44;10.48;;;6.53;;
46765;SDS011;32527;51.986;5.842;2022-09-09T04:29:19;11.05;;;6.50;;
46765;SDS011;32527;51.986;5.842;2022-09-09T04:31:56;16.70;;;7.03;;
46765;SDS011;32527;51.986;5.842;2022-09-09T04:34:30;16.45;;;6.57;;
46765;SDS011;32527;51.986;5.842;2022-09-09T04:37:04;13.35;;;6.68;;
46765;SDS011;32527;51.986;5.842;2022-09-09T04:39:37;18.65;;;6.55;;
46765;SDS011;32527;51.986;5.842;2022-09-09T04:42:15;12.88;;;6.53;;
46765;SDS011;32527;51.986;5.842;2022-09-09T04:44:43;14.98;;;7.22;;
46765;SDS011;32527;51.986;5.842;2022-09-09T04:47:14;11.68;;;6.80;;
46765;SDS011;32527;51.986;5.842;2022-09-09T04:49:50;13.95;;;6.63;;
46765;SDS011;32527;51.986;5.842;2022-09-09T04:52:28;10.90;;;6.18;;
46765;SDS011;32527;51.986;5.842;2022-09-09T04:55:01;13.48;;;6.15;;
46765;SDS011;32527;51.986;5.842;2022-09-09T04:57:43;13.48;;;6.47;;
46765;SDS011;32527;51.986;5.842;2022-09-09T05:00:16;11.35;;;6.10;;
46765;SDS011;32527;51.986;5.842;2022-09-09T05:03:09;13.35;;;5.78;;
46765;SDS011;32527;51.986;5.842;2022-09-09T05:05:52;10.95;;;5.55;;
46765;SDS011;32527;51.986;5.842;2022-09-09T05:08:26;13.77;;;6.40;;
46765;SDS011;32527;51.986;5.842;2022-09-09T05:11:03;11.07;;;6.35;;
46765;SDS011;32527;51.986;5.842;2022-09-09T05:17:07;12.25;;;5.53;;
46765;SDS011;32527;51.986;5.842;2022-09-09T05:19:47;13.73;;;6.50;;
46765;SDS011;32527;51.986;5.842;2022-09-09T05:22:20;10.63;;;5.70;;
46765;SDS011;32527;51.986;5.842;2022-09-09T05:24:52;13.48;;;5.28;;
46765;SDS011;32527;51.986;5.842;2022-09-09T05:27:19;13.73;;;5.80;;
46765;SDS011;32527;51.986;5.842;2022-09-09T05:29:47;10.13;;;5.22;;
46765;SDS011;32527;51.986;5.842;2022-09-09T05:32:22;13.75;;;5.68;;
46765;SDS011;32527;51.986;5.842;2022-09-09T05:34:56;14.25;;;6.15;;
46765;SDS011;32527;51.986;5.842;2022-09-09T05:37:32;11.68;;;5.78;;
46765;SDS011;32527;51.986;5.842;2022-09-09T05:40:20;17.60;;;5.90;;
46765;SDS011;32527;51.986;5.842;2022-09-09T05:42:52;13.50;;;5.68;;
46765;SDS011;32527;51.986;5.842;2022-09-09T05:45:21;15.45;;;5.47;;
46765;SDS011;32527;51.986;5.842;2022-09-09T05:47:51;16.17;;;5.63;;
46765;SDS011;32527;51.986;5.842;2022-09-09T05:50:20;13.27;;;6.00;;
46765;SDS011;32527;51.986;5.842;2022-09-09T05:52:53;14.02;;;5.88;;
46765;SDS011;32527;51.986;5.842;2022-09-09T05:55:43;15.70;;;5.88;;
46765;SDS011;32527;51.986;5.842;2022-09-09T05:58:16;15.65;;;5.90;;
46765;SDS011;32527;51.986;5.842;2022-09-09T06:00:45;15.85;;;5.63;;
46765;SDS011;32527;51.986;5.842;2022-09-09T06:03:21;8.80;;;5.03;;
46765;SDS011;32527;51.986;5.842;2022-09-09T06:06:02;15.55;;;5.82;;
46765;SDS011;32527;51.986;5.842;2022-09-09T06:08:43;13.07;;;5.03;;
46765;SDS011;32527;51.986;5.842;2022-09-09T06:13:48;16.65;;;5.25;;
46765;SDS011;32527;51.986;5.842;2022-09-09T06:16:17;13.23;;;5.60;;
46765;SDS011;32527;51.986;5.842;2022-09-09T06:18:53;15.15;;;5.32;;
46765;SDS011;32527;51.986;5.842;2022-09-09T06:21:35;14.15;;;5.03;;
46765;SDS011;32527;51.986;5.842;2022-09-09T06:24:12;14.65;;;6.28;;
46765;SDS011;32527;51.986;5.842;2022-09-09T06:26:41;12.70;;;5.65;;
46765;SDS011;32527;51.986;5.842;2022-09-09T06:29:10;14.55;;;4.75;;
46765;SDS011;32527;51.986;5.842;2022-09-09T06:31:41;14.43;;;5.30;;
46765;SDS011;32527;51.986;5.842;2022-09-09T06:34:26;14.00;;;5.07;;
46765;SDS011;32527;51.986;5.842;2022-09-09T06:37:08;12.00;;;4.90;;
46765;SDS011;32527;51.986;5.842;2022-09-09T06:39:43;13.32;;;5.72;;
46765;SDS011;32527;51.986;5.842;2022-09-09T06:42:10;13.38;;;4.60;;
46765;SDS011;32527;51.986;5.842;2022-09-09T06:44:45;9.13;;;4.50;;
46765;SDS011;32527;51.986;5.842;2022-09-09T06:47:28;9.30;;;4.75;;
46765;SDS011;32527;51.986;5.842;2022-09-09T06:50:01;11.88;;;4.53;;
46765;SDS011;32527;51.986;5.842;2022-09-09T06:52:38;14.65;;;4.97;;
46765;SDS011;32527;51.986;5.842;2022-09-09T06:55:11;14.80;;;4.82;;
46765;SDS011;32527;51.986;5.842;2022-09-09T06:57:50;12.50;;;4.47;;
46765;SDS011;32527;51.986;5.842;2022-09-09T07:00:22;10.85;;;3.92;;
46765;SDS011;32527;51.986;5.842;2022-09-09T07:02:50;14.15;;;3.88;;
46765;SDS011;32527;51.986;5.842;2022-09-09T07:05:22;11.07;;;3.45;;
46765;SDS011;32527;51.986;5.842;2022-09-09T07:07:59;5.63;;;2.80;;
46765;SDS011;32527;51.986;5.842;2022-09-09T07:10:31;7.32;;;3.25;;
46765;SDS011;32527;51.986;5.842;2022-09-09T07:13:06;6.13;;;3.00;;
46765;SDS011;32527;51.986;5.842;2022-09-09T07:15:38;7.07;;;3.20;;
46765;SDS011;32527;51.986;5.842;2022-09-09T07:18:22;11.48;;;2.78;;
46765;SDS011;32527;51.986;5.842;2022-09-09T07:20:57;9.80;;;3.08;;
46765;SDS011;32527;51.986;5.842;2022-09-09T07:23:28;14.55;;;5.88;;
46765;SDS011;32527;51.986;5.842;2022-09-09T07:26:08;9.90;;;3.42;;
46765;SDS011;32527;51.986;5.842;2022-09-09T07:28:53;9.65;;;3.38;;
46765;SDS011;32527;51.986;5.842;2022-09-09T07:31:34;11.85;;;3.53;;
46765;SDS011;32527;51.986;5.842;2022-09-09T07:34:15;10.25;;;3.63;;
46765;SDS011;32527;51.986;5.842;2022-09-09T07:36:57;10.50;;;3.15;;
46765;SDS011;32527;51.986;5.842;2022-09-09T07:39:40;5.55;;;3.20;;
46765;SDS011;32527;51.986;5.842;2022-09-09T07:42:17;8.82;;;2.95;;
46765;SDS011;32527;51.986;5.842;2022-09-09T07:44:44;7.00;;;3.03;;
46765;SDS011;32527;51.986;5.842;2022-09-09T07:47:13;9.95;;;3.40;;
46765;SDS011;32527;51.986;5.842;2022-09-09T07:49:52;16.02;;;3.80;;
46765;SDS011;32527;51.986;5.842;2022-09-09T07:52:28;13.15;;;4.88;;
46765;SDS011;32527;51.986;5.842;2022-09-09T07:55:02;9.38;;;3.35;;
46765;SDS011;32527;51.986;5.842;2022-09-09T08:00:24;7.95;;;3.10;;
46765;SDS011;32527;51.986;5.842;2022-09-09T08:03:04;8.25;;;3.53;;
46765;SDS011;32527;51.986;5.842;2022-09-09T08:05:40;13.00;;;3.70;;
46765;SDS011;32527;51.986;5.842;2022-09-09T08:08:15;7.68;;;3.70;;
46765;SDS011;32527;51.986;5.842;2022-09-09T08:10:51;14.27;;;3.58;;
46765;SDS011;32527;51.986;5.842;2022-09-09T08:13:27;12.38;;;3.83;;
46765;SDS011;32527;51.986;5.842;2022-09-09T08:16:25;14.23;;;3.90;;
46765;SDS011;32527;51.986;5.842;2022-09-09T08:18:57;9.20;;;3.97;;
46765;SDS011;32527;51.986;5.842;2022-09-09T08:21:29;9.38;;;3.70;;
46765;SDS011;32527;51.986;5.842;2022-09-09T08:24:01;11.55;;;3.47;;
46765;SDS011;32527;51.986;5.842;2022-09-09T08:26:54;9.65;;;2.97;;
46765;SDS011;32527;51.986;5.842;2022-09-09T08:29:24;12.90;;;4.15;;
46765;SDS011;32527;51.986;5.842;2022-09-09T08:31:53;11.55;;;3.72;;
46765;SDS011;32527;51.986;5.842;2022-09-09T08:34:29;16.60;;;3.55;;
46765;SDS011;32527;51.986;5.842;2022-09-09T08:37:15;10.15;;;3.60;;
46765;SDS011;32527;51.986;5.842;2022-09-09T08:39:43;9.23;;;3.20;;
46765;SDS011;32527;51.986;5.842;2022-09-09T08:42:33;10.52;;;3.42;;
46765;SDS011;32527;51.986;5.842;2022-09-09T08:45:14;13.50;;;3.80;;
46765;SDS011;32527;51.986;5.842;2022-09-09T08:51:27;8.75;;;3.00;;
46765;SDS011;32527;51.986;5.842;2022-09-09T08:53:56;8.75;;;3.10;;
46765;SDS011;32527;51.986;5.842;2022-09-09T08:56:24;15.18;;;3.38;;
46765;SDS011;32527;51.986;5.842;2022-09-09T08:58:54;13.55;;;3.72;;
46765;SDS011;32527;51.986;5.842;2022-09-09T09:09:51;12.73;;;3.20;;
46765;SDS011;32527;51.986;5.842;2022-09-09T09:12:39;10.13;;;2.53;;
46765;SDS011;32527;51.986;5.842;2022-09-09T09:15:18;16.08;;;2.97;;
46765;SDS011;32527;51.986;5.842;2022-09-09T09:17:46;7.85;;;2.65;;
46765;SDS011;32527;51.986;5.842;2022-09-09T09:20:14;6.00;;;2.42;;
46765;SDS011;32527;51.986;5.842;2022-09-09T09:22:51;9.35;;;3.40;;
46765;SDS011;32527;51.986;5.842;2022-09-09T09:25:21;8.05;;;2.80;;
46765;SDS011;32527;51.986;5.842;2022-09-09T09:28:02;14.55;;;2.80;;
46765;SDS011;32527;51.986;5.842;2022-09-09T09:30:48;7.25;;;2.33;;
46765;SDS011;32527;51.986;5.842;2022-09-09T09:33:22;5.72;;;2.08;;
46765;SDS011;32527;51.986;5.842;2022-09-09T09:36:11;8.13;;;2.47;;
46765;SDS011;32527;51.986;5.842;2022-09-09T09:39:00;8.70;;;2.50;;
46765;SDS011;32527;51.986;5.842;2022-09-09T09:41:30;6.82;;;2.35;;
46765;SDS011;32527;51.986;5.842;2022-09-09T09:44:03;7.15;;;2.80;;
46765;SDS011;32527;51.986;5.842;2022-09-09T09:46:30;6.28;;;3.00;;
46765;SDS011;32527;51.986;5.842;2022-09-09T09:49:08;5.30;;;2.88;;
46765;SDS011;32527;51.986;5.842;2022-09-09T09:51:36;7.07;;;2.70;;
46765;SDS011;32527;51.986;5.842;2022-09-09T09:54:08;8.07;;;2.35;;
46765;SDS011;32527;51.986;5.842;2022-09-09T09:56:38;7.65;;;2.72;;
46765;SDS011;32527;51.986;5.842;2022-09-09T09:59:17;7.03;;;2.72;;
46765;SDS011;32527;51.986;5.842;2022-09-09T10:02:14;8.80;;;2.35;;
46765;SDS011;32527;51.986;5.842;2022-09-09T10:04:48;10.10;;;2.45;;
46765;SDS011;32527;51.986;5.842;2022-09-09T10:07:26;10.70;;;2.30;;
46765;SDS011;32527;51.986;5.842;2022-09-09T10:09:55;7.80;;;2.33;;
46765;SDS011;32527;51.986;5.842;2022-09-09T10:12:25;7.70;;;2.63;;
46765;SDS011;32527;51.986;5.842;2022-09-09T10:18:00;8.95;;;2.72;;
46765;SDS011;32527;51.986;5.842;2022-09-09T10:20:51;15.20;;;2.90;;
46765;SDS011;32527;51.986;5.842;2022-09-09T10:31:37;10.05;;;2.70;;
46765;SDS011;32527;51.986;5.842;2022-09-09T10:36:39;9.88;;;2.63;;
46765;SDS011;32527;51.986;5.842;2022-09-09T10:42:04;12.45;;;3.33;;
46765;SDS011;32527;51.986;5.842;2022-09-09T10:47:14;9.07;;;2.47;;
46765;SDS011;32527;51.986;5.842;2022-09-09T10:49:52;10.43;;;2.75;;
46765;SDS011;32527;51.986;5.842;2022-09-09T10:55:20;15.32;;;2.85;;
46765;SDS011;32527;51.986;5.842;2022-09-09T10:57:57;7.03;;;3.10;;
46765;SDS011;32527;51.986;5.842;2022-09-09T11:00:24;8.07;;;2.70;;
46765;SDS011;32527;51.986;5.842;2022-09-09T11:03:20;11.85;;;3.00;;
46765;SDS011;32527;51.986;5.842;2022-09-09T11:05:51;6.10;;;2.33;;
46765;SDS011;32527;51.986;5.842;2022-09-09T11:08:23;11.88;;;3.78;;
46765;SDS011;32527;51.986;5.842;2022-09-09T11:16:02;10.50;;;2.97;;
46765;SDS011;32527;51.986;5.842;2022-09-09T11:18:38;6.25;;;2.72;;
46765;SDS011;32527;51.986;5.842;2022-09-09T11:21:07;9.02;;;3.30;;
46765;SDS011;32527;51.986;5.842;2022-09-09T11:23:43;10.50;;;3.45;;
46765;SDS011;32527;51.986;5.842;2022-09-09T11:26:17;13.55;;;3.40;;
46765;SDS011;32527;51.986;5.842;2022-09-09T11:42:35;16.17;;;3.80;;
46765;SDS011;32527;51.986;5.842;2022-09-09T11:47:51;13.23;;;3.40;;
46765;SDS011;32527;51.986;5.842;2022-09-09T11:52:45;7.35;;;2.85;;
46765;SDS011;32527;51.986;5.842;2022-09-09T11:55:28;9.20;;;3.25;;
46765;SDS011;32527;51.986;5.842;2022-09-09T11:58:01;8.13;;;3.53;;
46765;SDS011;32527;51.986;5.842;2022-09-09T12:02:58;8.50;;;3.25;;
46765;SDS011;32527;51.986;5.842;2022-09-09T12:05:24;8.85;;;2.92;;
46765;SDS011;32527;51.986;5.842;2022-09-09T12:08:05;5.97;;;2.80;;
46765;SDS011;32527;51.986;5.842;2022-09-09T12:10:35;9.85;;;3.10;;
46765;SDS011;32527;51.986;5.842;2022-09-09T12:13:20;8.15;;;2.95;;
46765;SDS011;32527;51.986;5.842;2022-09-09T12:15:51;6.50;;;2.45;;
46765;SDS011;32527;51.986;5.842;2022-09-09T12:18:22;3.63;;;2.45;;
46765;SDS011;32527;51.986;5.842;2022-09-09T12:23:52;7.95;;;2.45;;
46765;SDS011;32527;51.986;5.842;2022-09-09T12:26:29;5.60;;;2.50;;
46765;SDS011;32527;51.986;5.842;2022-09-09T12:29:10;9.57;;;2.80;;
46765;SDS011;32527;51.986;5.842;2022-09-09T12:34:28;9.20;;;3.28;;
46765;SDS011;32527;51.986;5.842;2022-09-09T12:39:40;6.47;;;2.50;;
46765;SDS011;32527;51.986;5.842;2022-09-09T12:42:18;9.75;;;2.90;;
46765;SDS011;32527;51.986;5.842;2022-09-09T12:44:51;8.02;;;3.03;;
46765;SDS011;32527;51.986;5.842;2022-09-09T12:47:29;8.25;;;2.70;;
46765;SDS011;32527;51.986;5.842;2022-09-09T12:52:56;8.05;;;2.45;;
46765;SDS011;32527;51.986;5.842;2022-09-09T12:55:35;9.27;;;2.70;;
46765;SDS011;32527;51.986;5.842;2022-09-09T12:58:03;9.93;;;3.08;;
46765;SDS011;32527;51.986;5.842;2022-09-09T13:00:31;9.07;;;3.50;;
46765;SDS011;32527;51.986;5.842;2022-09-09T13:02:59;10.40;;;3.35;;
46765;SDS011;32527;51.986;5.842;2022-09-09T13:05:37;6.70;;;3.13;;
46765;SDS011;32527;51.986;5.842;2022-09-09T13:08:08;6.40;;;2.75;;
46765;SDS011;32527;51.986;5.842;2022-09-09T13:10:49;6.13;;;2.35;;
46765;SDS011;32527;51.986;5.842;2022-09-09T13:13:23;7.70;;;3.17;;
46765;SDS011;32527;51.986;5.842;2022-09-09T13:16:20;9.15;;;3.80;;
46765;SDS011;32527;51.986;5.842;2022-09-09T13:19:00;6.65;;;2.45;;
46765;SDS011;32527;51.986;5.842;2022-09-09T13:21:38;4.75;;;3.00;;
46765;SDS011;32527;51.986;5.842;2022-09-09T13:24:05;4.25;;;2.28;;
46765;SDS011;32527;51.986;5.842;2022-09-09T13:26:53;7.00;;;3.03;;
46765;SDS011;32527;51.986;5.842;2022-09-09T13:29:26;7.90;;;2.75;;
46765;SDS011;32527;51.986;5.842;2022-09-09T13:31:51;5.28;;;2.92;;
46765;SDS011;32527;51.986;5.842;2022-09-09T13:36:56;6.47;;;3.10;;
46765;SDS011;32527;51.986;5.842;2022-09-09T13:39:28;9.05;;;3.00;;
46765;SDS011;32527;51.986;5.842;2022-09-09T13:41:54;6.45;;;2.45;;
46765;SDS011;32527;51.986;5.842;2022-09-09T13:44:21;6.40;;;2.58;;
46765;SDS011;32527;51.986;5.842;2022-09-09T13:47:03;10.18;;;2.90;;
46765;SDS011;32527;51.986;5.842;2022-09-09T13:49:31;7.15;;;2.63;;
46765;SDS011;32527;51.986;5.842;2022-09-09T13:52:31;8.30;;;2.97;;
46765;SDS011;32527;51.986;5.842;2022-09-09T13:54:51;5.57;;;2.47;;
46765;SDS011;32527;51.986;5.842;2022-09-09T13:57:20;5.15;;;2.42;;
46765;SDS011;32527;51.986;5.842;2022-09-09T13:59:47;6.95;;;2.60;;
46765;SDS011;32527;51.986;5.842;2022-09-09T14:02:14;7.20;;;2.80;;
46765;SDS011;32527;51.986;5.842;2022-09-09T14:04:41;5.95;;;2.72;;
46765;SDS011;32527;51.986;5.842;2022-09-09T14:07:17;7.97;;;2.92;;
46765;SDS011;32527;51.986;5.842;2022-09-09T14:09:43;6.47;;;3.17;;
46765;SDS011;32527;51.986;5.842;2022-09-09T14:12:13;8.88;;;2.72;;
46765;SDS011;32527;51.986;5.842;2022-09-09T14:14:39;6.63;;;2.03;;
46765;SDS011;32527;51.986;5.842;2022-09-09T14:17:07;6.22;;;2.58;;
46765;SDS011;32527;51.986;5.842;2022-09-09T14:19:33;6.32;;;2.83;;
46765;SDS011;32527;51.986;5.842;2022-09-09T14:21:59;7.65;;;2.72;;
46765;SDS011;32527;51.986;5.842;2022-09-09T14:24:26;4.78;;;2.05;;
46765;SDS011;32527;51.986;5.842;2022-09-09T14:26:52;5.60;;;2.67;;
46765;SDS011;32527;51.986;5.842;2022-09-09T14:29:18;6.75;;;2.42;;
46765;SDS011;32527;51.986;5.842;2022-09-09T14:31:44;5.70;;;2.20;;
46765;SDS011;32527;51.986;5.842;2022-09-09T14:34:10;8.13;;;2.10;;
46765;SDS011;32527;51.986;5.842;2022-09-09T14:36:36;8.90;;;2.72;;
46765;SDS011;32527;51.986;5.842;2022-09-09T14:39:02;7.80;;;3.05;;
46765;SDS011;32527;51.986;5.842;2022-09-09T14:41:29;6.78;;;1.90;;
46765;SDS011;32527;51.986;5.842;2022-09-09T14:43:55;6.22;;;2.20;;
46765;SDS011;32527;51.986;5.842;2022-09-09T14:46:22;7.78;;;3.35;;
46765;SDS011;32527;51.986;5.842;2022-09-09T14:48:48;5.68;;;2.35;;
46765;SDS011;32527;51.986;5.842;2022-09-09T14:53:56;5.20;;;2.45;;
46765;SDS011;32527;51.986;5.842;2022-09-09T14:56:25;4.80;;;2.67;;
46765;SDS011;32527;51.986;5.842;2022-09-09T14:59:02;9.25;;;2.35;;
46765;SDS011;32527;51.986;5.842;2022-09-09T15:01:31;4.38;;;2.03;;
46765;SDS011;32527;51.986;5.842;2022-09-09T15:04:02;5.30;;;2.45;;
46765;SDS011;32527;51.986;5.842;2022-09-09T15:06:50;8.40;;;2.50;;
46765;SDS011;32527;51.986;5.842;2022-09-09T15:09:29;6.25;;;2.78;;
46765;SDS011;32527;51.986;5.842;2022-09-09T15:12:05;7.85;;;3.25;;
46765;SDS011;32527;51.986;5.842;2022-09-09T15:14:35;6.75;;;2.35;;
46765;SDS011;32527;51.986;5.842;2022-09-09T15:17:04;5.32;;;2.45;;
46765;SDS011;32527;51.986;5.842;2022-09-09T15:19:52;8.20;;;2.90;;
46765;SDS011;32527;51.986;5.842;2022-09-09T15:25:14;7.40;;;2.90;;
46765;SDS011;32527;51.986;5.842;2022-09-09T15:27:49;8.57;;;3.22;;
46765;SDS011;32527;51.986;5.842;2022-09-09T15:30:27;6.90;;;3.45;;
46765;SDS011;32527;51.986;5.842;2022-09-09T15:33:18;9.95;;;3.58;;
46765;SDS011;32527;51.986;5.842;2022-09-09T15:39:36;10.07;;;4.45;;
46765;SDS011;32527;51.986;5.842;2022-09-09T15:42:37;13.23;;;5.32;;
46765;SDS011;32527;51.986;5.842;2022-09-09T15:46:14;8.50;;;4.82;;
46765;SDS011;32527;51.986;5.842;2022-09-09T15:52:23;20.27;;;7.60;;
46765;SDS011;32527;51.986;5.842;2022-09-09T15:55:33;14.02;;;5.53;;
46765;SDS011;32527;51.986;5.842;2022-09-09T15:58:29;16.30;;;5.95;;
46765;SDS011;32527;51.986;5.842;2022-09-09T16:01:10;12.10;;;4.90;;
46765;SDS011;32527;51.986;5.842;2022-09-09T16:03:42;8.00;;;3.60;;
46765;SDS011;32527;51.986;5.842;2022-09-09T16:09:48;7.07;;;2.55;;
46765;SDS011;32527;51.986;5.842;2022-09-09T16:12:47;7.97;;;3.40;;
46765;SDS011;32527;51.986;5.842;2022-09-09T16:15:22;6.47;;;3.03;;
46765;SDS011;32527;51.986;5.842;2022-09-09T16:21:09;9.57;;;4.10;;
46765;SDS011;32527;51.986;5.842;2022-09-09T16:24:22;9.80;;;4.75;;
46765;SDS011;32527;51.986;5.842;2022-09-09T16:26:55;7.38;;;4.47;;
46765;SDS011;32527;51.986;5.842;2022-09-09T16:30:06;8.88;;;5.00;;
46765;SDS011;32527;51.986;5.842;2022-09-09T16:33:05;8.38;;;5.32;;
46765;SDS011;32527;51.986;5.842;2022-09-09T16:35:35;11.63;;;5.13;;
46765;SDS011;32527;51.986;5.842;2022-09-09T16:38:01;10.32;;;5.00;;
46765;SDS011;32527;51.986;5.842;2022-09-09T16:40:27;9.27;;;5.53;;
46765;SDS011;32527;51.986;5.842;2022-09-09T16:42:53;12.85;;;6.20;;
46765;SDS011;32527;51.986;5.842;2022-09-09T16:45:19;14.25;;;6.28;;
46765;SDS011;32527;51.986;5.842;2022-09-09T16:47:45;13.13;;;5.90;;
46765;SDS011;32527;51.986;5.842;2022-09-09T16:50:11;9.48;;;6.15;;
46765;SDS011;32527;51.986;5.842;2022-09-09T16:52:37;9.88;;;6.20;;
46765;SDS011;32527;51.986;5.842;2022-09-09T16:55:03;12.10;;;7.28;;
46765;SDS011;32527;51.986;5.842;2022-09-09T16:57:29;11.10;;;6.70;;
46765;SDS011;32527;51.986;5.842;2022-09-09T16:59:55;10.43;;;6.70;;
46765;SDS011;32527;51.986;5.842;2022-09-09T17:02:24;13.73;;;6.53;;
46765;SDS011;32527;51.986;5.842;2022-09-09T17:04:50;11.32;;;6.90;;
46765;SDS011;32527;51.986;5.842;2022-09-09T17:07:15;9.85;;;7.05;;
46765;SDS011;32527;51.986;5.842;2022-09-09T17:09:43;14.73;;;5.97;;
46765;SDS011;32527;51.986;5.842;2022-09-09T17:12:10;17.70;;;6.72;;
46765;SDS011;32527;51.986;5.842;2022-09-09T17:14:37;9.50;;;5.50;;
46765;SDS011;32527;51.986;5.842;2022-09-09T17:17:02;9.23;;;5.63;;
46765;SDS011;32527;51.986;5.842;2022-09-09T17:19:29;11.00;;;5.90;;
46765;SDS011;32527;51.986;5.842;2022-09-09T17:21:55;8.57;;;5.93;;
46765;SDS011;32527;51.986;5.842;2022-09-09T17:24:25;9.82;;;5.28;;
46765;SDS011;32527;51.986;5.842;2022-09-09T17:26:54;7.90;;;5.63;;
46765;SDS011;32527;51.986;5.842;2022-09-09T17:29:20;8.25;;;5.53;;
46765;SDS011;32527;51.986;5.842;2022-09-09T17:31:46;9.30;;;5.18;;
46765;SDS011;32527;51.986;5.842;2022-09-09T17:34:12;8.35;;;5.72;;
46765;SDS011;32527;51.986;5.842;2022-09-09T17:36:38;8.50;;;5.07;;
46765;SDS011;32527;51.986;5.842;2022-09-09T17:39:04;10.40;;;5.93;;
46765;SDS011;32527;51.986;5.842;2022-09-09T17:41:31;12.77;;;5.88;;
46765;SDS011;32527;51.986;5.842;2022-09-09T17:44:05;10.70;;;6.82;;
46765;SDS011;32527;51.986;5.842;2022-09-09T17:46:36;11.63;;;6.82;;
46765;SDS011;32527;51.986;5.842;2022-09-09T17:49:06;10.43;;;7.18;;
46765;SDS011;32527;51.986;5.842;2022-09-09T17:51:34;8.15;;;6.38;;
46765;SDS011;32527;51.986;5.842;2022-09-09T17:54:01;14.05;;;7.45;;
46765;SDS011;32527;51.986;5.842;2022-09-09T17:56:35;10.82;;;6.45;;
46765;SDS011;32527;51.986;5.842;2022-09-09T17:59:03;10.10;;;6.25;;